sensor_id;sensor_type;location;lat;lon;timestamp;pressure;altitude;pressure_sealevel;temperature;humidity
6599;BME280;3335;43.198;27.918;2023-02-10T00:01:19;146365.72;;;-3.83;100.00
6599;BME280;3335;43.198;27.918;2023-02-10T00:03:47;146370.66;;;-3.81;100.00
6599;BME280;3335;43.198;27.918;2023-02-10T00:06:18;146358.31;;;-3.86;100.00
6599;BME280;3335;43.198;27.918;2023-02-10T00:08:46;146358.31;;;-3.86;100.00
6599;BME280;3335;43.198;27.918;2023-02-10T00:11:13;146375.56;;;-3.79;100.00
6599;BME280;3335;43.198;27.918;2023-02-10T00:13:41;146370.66;;;-3.81;100.00
6599;BME280;3335;43.198;27.918;2023-02-10T00:16:11;146357.06;;;-3.86;100.00
6599;BME280;3335;43.198;27.918;2023-02-10T00:18:38;146365.72;;;-3.83;100.00
6599;BME280;3335;43.198;27.918;2023-02-10T00:21:07;146374.34;;;-3.79;100.00
6599;BME280;3335;43.198;27.918;2023-02-10T00:23:35;146363.22;;;-3.84;100.00
6599;BME280;3335;43.198;27.918;2023-02-10T00:26:03;146343.50;;;-3.92;100.00
6599;BME280;3335;43.198;27.918;2023-02-10T00:28:32;146296.59;;;-4.11;100.00
6599;BME280;3335;43.198;27.918;2023-02-10T00:31:05;146336.09;;;-3.95;100.00
6599;BME280;3335;43.198;27.918;2023-02-10T00:33:32;146331.13;;;-3.97;100.00
6599;BME280;3335;43.198;27.918;2023-02-10T00:36:03;146284.25;;;-4.16;100.00
6599;BME280;3335;43.198;27.918;2023-02-10T00:38:30;146284.25;;;-4.16;100.00
6599;BME280;3335;43.198;27.918;2023-02-10T00:41:02;146253.41;;;-4.29;100.00
6599;BME280;3335;43.198;27.918;2023-02-10T00:43:30;146244.78;;;-4.32;100.00
6599;BME280;3335;43.198;27.918;2023-02-10T00:45:57;146231.19;;;-4.38;100.00
6599;BME280;3335;43.198;27.918;2023-02-10T00:48:23;146229.94;;;-4.38;100.00
6599;BME280;3335;43.198;27.918;2023-02-10T00:50:50;146227.47;;;-4.39;100.00
6599;BME280;3335;43.198;27.918;2023-02-10T00:53:18;146249.69;;;-4.30;100.00
6599;BME280;3335;43.198;27.918;2023-02-10T00:55:44;146248.44;;;-4.31;100.00
6599;BME280;3335;43.198;27.918;2023-02-10T00:58:13;146236.09;;;-4.36;100.00
6599;BME280;3335;43.198;27.918;2023-02-10T01:00:40;146225.00;;;-4.41;100.00
6599;BME280;3335;43.198;27.918;2023-02-10T01:03:07;146170.72;;;-4.63;100.00
6599;BME280;3335;43.198;27.918;2023-02-10T01:05:33;146229.94;;;-4.38;100.00
6599;BME280;3335;43.198;27.918;2023-02-10T01:08:00;146227.47;;;-4.39;100.00
6599;BME280;3335;43.198;27.918;2023-02-10T01:10:27;146233.63;;;-4.37;100.00
6599;BME280;3335;43.198;27.918;2023-02-10T01:12:54;146227.47;;;-4.39;100.00
6599;BME280;3335;43.198;27.918;2023-02-10T01:15:23;146237.34;;;-4.35;100.00
6599;BME280;3335;43.198;27.918;2023-02-10T01:17:50;146237.34;;;-4.35;100.00
6599;BME280;3335;43.198;27.918;2023-02-10T01:20:17;146232.44;;;-4.37;100.00
6599;BME280;3335;43.198;27.918;2023-02-10T01:22:43;146221.34;;;-4.42;100.00
6599;BME280;3335;43.198;27.918;2023-02-10T01:25:10;146221.34;;;-4.42;100.00
6599;BME280;3335;43.198;27.918;2023-02-10T01:27:37;146225.00;;;-4.41;100.00
6599;BME280;3335;43.198;27.918;2023-02-10T01:30:05;146207.75;;;-4.48;100.00
6599;BME280;3335;43.198;27.918;2023-02-10T01:32:33;146220.09;;;-4.43;100.00
6599;BME280;3335;43.198;27.918;2023-02-10T01:35:00;146212.66;;;-4.46;100.00
6599;BME280;3335;43.198;27.918;2023-02-10T01:37:27;146200.31;;;-4.51;100.00
6599;BME280;3335;43.198;27.918;2023-02-10T01:39:54;146183.06;;;-4.58;100.00
6599;BME280;3335;43.198;27.918;2023-02-10T01:42:21;146196.66;;;-4.52;100.00
6599;BME280;3335;43.198;27.918;2023-02-10T01:45:22;146209.00;;;-4.47;100.00
6599;BME280;3335;43.198;27.918;2023-02-10T01:47:52;146197.88;;;-4.52;100.00
6599;BME280;3335;43.198;27.918;2023-02-10T01:50:22;146207.75;;;-4.48;100.00
6599;BME280;3335;43.198;27.918;2023-02-10T01:52:50;146212.66;;;-4.46;100.00
6599;BME280;3335;43.198;27.918;2023-02-10T01:55:20;146202.78;;;-4.50;100.00
6599;BME280;3335;43.198;27.918;2023-02-10T01:57:48;146205.28;;;-4.49;100.00
6599;BME280;3335;43.198;27.918;2023-02-10T02:00:20;146202.78;;;-4.50;100.00
6599;BME280;3335;43.198;27.918;2023-02-10T02:02:48;146205.28;;;-4.49;100.00
6599;BME280;3335;43.198;27.918;2023-02-10T02:05:22;146207.75;;;-4.48;100.00
6599;BME280;3335;43.198;27.918;2023-02-10T02:07:54;146199.06;;;-4.51;100.00
6599;BME280;3335;43.198;27.918;2023-02-10T02:10:27;146192.94;;;-4.54;100.00
6599;BME280;3335;43.198;27.918;2023-02-10T02:12:58;146181.84;;;-4.58;100.00
6599;BME280;3335;43.198;27.918;2023-02-10T02:15:36;146200.31;;;-4.51;100.00
6599;BME280;3335;43.198;27.918;2023-02-10T02:18:11;146202.78;;;-4.50;100.00
6599;BME280;3335;43.198;27.918;2023-02-10T02:21:05;146202.78;;;-4.50;100.00
6599;BME280;3335;43.198;27.918;2023-02-10T02:24:01;146204.03;;;-4.49;100.00
6599;BME280;3335;43.198;27.918;2023-02-10T02:26:43;146195.41;;;-4.53;100.00
6599;BME280;3335;43.198;27.918;2023-02-10T02:29:29;146170.72;;;-4.63;100.00
6599;BME280;3335;43.198;27.918;2023-02-10T02:32:04;146180.59;;;-4.59;100.00
6599;BME280;3335;43.198;27.918;2023-02-10T02:34:37;146174.44;;;-4.61;100.00
6599;BME280;3335;43.198;27.918;2023-02-10T02:37:10;146160.88;;;-4.67;100.00
6599;BME280;3335;43.198;27.918;2023-02-10T02:39:40;146168.25;;;-4.64;100.00
6599;BME280;3335;43.198;27.918;2023-02-10T02:42:19;146179.34;;;-4.59;100.00
6599;BME280;3335;43.198;27.918;2023-02-10T02:44:48;146155.91;;;-4.69;100.00
6599;BME280;3335;43.198;27.918;2023-02-10T02:47:30;146165.78;;;-4.65;100.00
6599;BME280;3335;43.198;27.918;2023-02-10T02:50:11;146152.19;;;-4.70;100.00
6599;BME280;3335;43.198;27.918;2023-02-10T02:52:49;146141.09;;;-4.75;100.00
6599;BME280;3335;43.198;27.918;2023-02-10T02:55:26;146123.84;;;-4.82;100.00
6599;BME280;3335;43.198;27.918;2023-02-10T02:58:00;146086.84;;;-4.97;100.00
6599;BME280;3335;43.198;27.918;2023-02-10T03:00:31;146106.56;;;-4.89;100.00
6599;BME280;3335;43.198;27.918;2023-02-10T03:03:01;146099.19;;;-4.92;100.00
6599;BME280;3335;43.198;27.918;2023-02-10T03:05:29;146079.47;;;-5.00;100.00
6599;BME280;3335;43.198;27.918;2023-02-10T03:07:57;146064.66;;;-5.06;100.00
6599;BME280;3335;43.198;27.918;2023-02-10T03:10:24;146069.59;;;-5.04;100.00
6599;BME280;3335;43.198;27.918;2023-02-10T03:12:51;146067.13;;;-5.05;100.00
6599;BME280;3335;43.198;27.918;2023-02-10T03:15:18;146059.69;;;-5.08;100.00
6599;BME280;3335;43.198;27.918;2023-02-10T03:17:45;146057.28;;;-5.09;100.00
6599;BME280;3335;43.198;27.918;2023-02-10T03:20:14;146074.50;;;-5.02;100.00
6599;BME280;3335;43.198;27.918;2023-02-10T03:22:41;146060.94;;;-5.08;100.00
6599;BME280;3335;43.198;27.918;2023-02-10T03:25:08;146057.28;;;-5.09;100.00
6599;BME280;3335;43.198;27.918;2023-02-10T03:27:35;146047.41;;;-5.13;100.00
6599;BME280;3335;43.198;27.918;2023-02-10T03:30:03;146057.28;;;-5.09;100.00
6599;BME280;3335;43.198;27.918;2023-02-10T03:32:30;146069.59;;;-5.04;100.00
6599;BME280;3335;43.198;27.918;2023-02-10T03:34:56;146079.47;;;-5.00;100.00
6599;BME280;3335;43.198;27.918;2023-02-10T03:37:25;146099.19;;;-4.92;100.00
6599;BME280;3335;43.198;27.918;2023-02-10T03:39:52;146091.78;;;-4.95;100.00
6599;BME280;3335;43.198;27.918;2023-02-10T03:42:19;146081.94;;;-4.99;100.00
6599;BME280;3335;43.198;27.918;2023-02-10T03:44:46;146114.00;;;-4.86;100.00
6599;BME280;3335;43.198;27.918;2023-02-10T03:47:13;146097.94;;;-4.93;100.00
6599;BME280;3335;43.198;27.918;2023-02-10T03:49:39;146069.59;;;-5.04;100.00
6599;BME280;3335;43.198;27.918;2023-02-10T03:52:06;146104.13;;;-4.90;100.00
6599;BME280;3335;43.198;27.918;2023-02-10T03:54:35;146089.31;;;-4.96;100.00
6599;BME280;3335;43.198;27.918;2023-02-10T03:57:01;146088.09;;;-4.97;100.00
6599;BME280;3335;43.198;27.918;2023-02-10T03:59:28;146086.84;;;-4.97;100.00
6599;BME280;3335;43.198;27.918;2023-02-10T04:01:55;146086.84;;;-4.97;100.00
6599;BME280;3335;43.198;27.918;2023-02-10T04:04:22;146086.84;;;-4.97;100.00
6599;BME280;3335;43.198;27.918;2023-02-10T04:06:49;146091.78;;;-4.95;100.00
6599;BME280;3335;43.198;27.918;2023-02-10T04:09:16;146086.84;;;-4.97;100.00
6599;BME280;3335;43.198;27.918;2023-02-10T04:11:44;146095.47;;;-4.94;100.00
6599;BME280;3335;43.198;27.918;2023-02-10T04:14:11;146106.56;;;-4.89;100.00
6599;BME280;3335;43.198;27.918;2023-02-10T04:16:38;146099.19;;;-4.92;100.00
6599;BME280;3335;43.198;27.918;2023-02-10T04:19:05;146070.84;;;-5.04;100.00
6599;BME280;3335;43.198;27.918;2023-02-10T04:21:32;146072.03;;;-5.03;100.00
6599;BME280;3335;43.198;27.918;2023-02-10T04:23:59;146074.50;;;-5.02;100.00
6599;BME280;3335;43.198;27.918;2023-02-10T04:26:26;146057.28;;;-5.09;100.00
6599;BME280;3335;43.198;27.918;2023-02-10T04:28:55;146060.94;;;-5.08;100.00
6599;BME280;3335;43.198;27.918;2023-02-10T04:31:21;146037.50;;;-5.17;100.00
6599;BME280;3335;43.198;27.918;2023-02-10T04:33:48;146037.50;;;-5.17;100.00
6599;BME280;3335;43.198;27.918;2023-02-10T04:36:15;146021.50;;;-5.24;100.00
6599;BME280;3335;43.198;27.918;2023-02-10T04:38:42;146010.41;;;-5.28;100.00
6599;BME280;3335;43.198;27.918;2023-02-10T04:41:09;145993.13;;;-5.36;100.00
6599;BME280;3335;43.198;27.918;2023-02-10T04:43:36;146012.88;;;-5.27;100.00
6599;BME280;3335;43.198;27.918;2023-02-10T04:46:04;145998.09;;;-5.34;100.00
6599;BME280;3335;43.198;27.918;2023-02-10T04:48:32;145980.78;;;-5.41;100.00
6599;BME280;3335;43.198;27.918;2023-02-10T04:51:00;145991.88;;;-5.36;100.00
6599;BME280;3335;43.198;27.918;2023-02-10T04:53:26;145985.75;;;-5.39;100.00
6599;BME280;3335;43.198;27.918;2023-02-10T04:55:53;145969.72;;;-5.45;100.00
6599;BME280;3335;43.198;27.918;2023-02-10T04:58:21;145985.75;;;-5.39;100.00
6599;BME280;3335;43.198;27.918;2023-02-10T05:00:48;145979.56;;;-5.41;100.00
6599;BME280;3335;43.198;27.918;2023-02-10T05:03:16;145974.66;;;-5.43;100.00
6599;BME280;3335;43.198;27.918;2023-02-10T05:05:43;145957.38;;;-5.50;100.00
6599;BME280;3335;43.198;27.918;2023-02-10T05:08:10;145941.38;;;-5.57;100.00
6599;BME280;3335;43.198;27.918;2023-02-10T05:10:37;145924.09;;;-5.64;100.00
6599;BME280;3335;43.198;27.918;2023-02-10T05:13:04;145906.88;;;-5.71;100.00
6599;BME280;3335;43.198;27.918;2023-02-10T05:15:31;145921.63;;;-5.65;100.00
6599;BME280;3335;43.198;27.918;2023-02-10T05:17:58;145909.31;;;-5.70;100.00
6599;BME280;3335;43.198;27.918;2023-02-10T05:20:26;145903.16;;;-5.72;100.00
6599;BME280;3335;43.198;27.918;2023-02-10T05:22:53;145895.78;;;-5.76;100.00
6599;BME280;3335;43.198;27.918;2023-02-10T05:25:20;145894.53;;;-5.76;100.00
6599;BME280;3335;43.198;27.918;2023-02-10T05:27:47;145887.13;;;-5.79;100.00
6599;BME280;3335;43.198;27.918;2023-02-10T05:30:13;145871.13;;;-5.86;100.00
6599;BME280;3335;43.198;27.918;2023-02-10T05:32:40;145882.22;;;-5.81;100.00
6599;BME280;3335;43.198;27.918;2023-02-10T05:35:08;145852.66;;;-5.93;100.00
6599;BME280;3335;43.198;27.918;2023-02-10T05:37:36;145908.09;;;-5.70;100.00
6599;BME280;3335;43.198;27.918;2023-02-10T05:40:05;145906.88;;;-5.71;100.00
6599;BME280;3335;43.198;27.918;2023-02-10T05:42:32;145899.44;;;-5.74;100.00
6599;BME280;3335;43.198;27.918;2023-02-10T05:44:59;145909.31;;;-5.70;100.00
6599;BME280;3335;43.198;27.918;2023-02-10T05:47:26;145929.06;;;-5.62;100.00
6599;BME280;3335;43.198;27.918;2023-02-10T05:49:53;145909.31;;;-5.70;100.00
6599;BME280;3335;43.198;27.918;2023-02-10T05:52:20;145932.72;;;-5.60;100.00
6599;BME280;3335;43.198;27.918;2023-02-10T05:54:48;145943.81;;;-5.56;100.00
6599;BME280;3335;43.198;27.918;2023-02-10T05:57:15;145842.81;;;-5.97;100.00
6599;BME280;3335;43.198;27.918;2023-02-10T05:59:42;145951.22;;;-5.53;100.00
6599;BME280;3335;43.198;27.918;2023-02-10T06:02:09;145956.13;;;-5.51;100.00
6599;BME280;3335;43.198;27.918;2023-02-10T06:04:36;145968.47;;;-5.46;100.00
6599;BME280;3335;43.198;27.918;2023-02-10T06:07:03;145980.78;;;-5.41;100.00
6599;BME280;3335;43.198;27.918;2023-02-10T06:09:30;145985.75;;;-5.39;100.00
6599;BME280;3335;43.198;27.918;2023-02-10T06:11:58;146010.41;;;-5.28;100.00
6599;BME280;3335;43.198;27.918;2023-02-10T06:14:26;146012.88;;;-5.27;100.00
6599;BME280;3335;43.198;27.918;2023-02-10T06:16:53;146035.06;;;-5.18;100.00
6599;BME280;3335;43.198;27.918;2023-02-10T06:19:20;146039.97;;;-5.16;100.00
6599;BME280;3335;43.198;27.918;2023-02-10T06:21:47;146052.31;;;-5.11;100.00
6599;BME280;3335;43.198;27.918;2023-02-10T06:24:14;146042.47;;;-5.15;100.00
6599;BME280;3335;43.198;27.918;2023-02-10T06:26:41;146067.13;;;-5.05;100.00
6599;BME280;3335;43.198;27.918;2023-02-10T06:29:09;146064.66;;;-5.06;100.00
6599;BME280;3335;43.198;27.918;2023-02-10T06:31:36;146099.19;;;-4.92;100.00
6599;BME280;3335;43.198;27.918;2023-02-10T06:34:03;146106.56;;;-4.89;100.00
6599;BME280;3335;43.198;27.918;2023-02-10T06:36:30;146128.81;;;-4.80;100.00
6599;BME280;3335;43.198;27.918;2023-02-10T06:38:57;146141.09;;;-4.75;100.00
6599;BME280;3335;43.198;27.918;2023-02-10T06:41:24;146168.25;;;-4.64;100.00
6599;BME280;3335;43.198;27.918;2023-02-10T06:43:51;146169.50;;;-4.63;100.00
6599;BME280;3335;43.198;27.918;2023-02-10T06:46:19;146207.75;;;-4.48;100.00
6599;BME280;3335;43.198;27.918;2023-02-10T06:48:46;146237.34;;;-4.35;100.00
6599;BME280;3335;43.198;27.918;2023-02-10T06:51:13;146254.63;;;-4.28;100.00
6599;BME280;3335;43.198;27.918;2023-02-10T06:53:40;146237.34;;;-4.35;100.00
6599;BME280;3335;43.198;27.918;2023-02-10T06:56:08;146220.09;;;-4.43;100.00
6599;BME280;3335;43.198;27.918;2023-02-10T06:58:35;146258.31;;;-4.27;100.00
6599;BME280;3335;43.198;27.918;2023-02-10T07:01:06;146317.56;;;-4.03;100.00
6599;BME280;3335;43.198;27.918;2023-02-10T07:03:35;146333.63;;;-3.96;100.00
6599;BME280;3335;43.198;27.918;2023-02-10T07:06:03;146355.84;;;-3.87;100.00
6599;BME280;3335;43.198;27.918;2023-02-10T07:08:30;146373.09;;;-3.80;100.00
6599;BME280;3335;43.198;27.918;2023-02-10T07:10:57;146385.44;;;-3.75;100.00
6599;BME280;3335;43.198;27.918;2023-02-10T07:13:25;146411.38;;;-3.64;100.00
6599;BME280;3335;43.198;27.918;2023-02-10T07:15:52;146420.00;;;-3.61;100.00
6599;BME280;3335;43.198;27.918;2023-02-10T07:18:19;146427.44;;;-3.58;100.00
6599;BME280;3335;43.198;27.918;2023-02-10T07:20:47;146428.69;;;-3.57;100.00
6599;BME280;3335;43.198;27.918;2023-02-10T07:23:14;146448.44;;;-3.49;100.00
6599;BME280;3335;43.198;27.918;2023-02-10T07:25:41;146473.16;;;-3.39;100.00
6599;BME280;3335;43.198;27.918;2023-02-10T07:28:07;146466.94;;;-3.41;100.00
6599;BME280;3335;43.198;27.918;2023-02-10T07:30:34;146533.69;;;-3.14;100.00
6599;BME280;3335;43.198;27.918;2023-02-10T07:33:01;146563.31;;;-3.02;100.00
6599;BME280;3335;43.198;27.918;2023-02-10T07:35:28;146583.06;;;-2.94;100.00
6599;BME280;3335;43.198;27.918;2023-02-10T07:37:57;146610.25;;;-2.83;100.00
6599;BME280;3335;43.198;27.918;2023-02-10T07:40:24;146622.59;;;-2.78;100.00
6599;BME280;3335;43.198;27.918;2023-02-10T07:42:54;146657.22;;;-2.63;100.00
6599;BME280;3335;43.198;27.918;2023-02-10T07:45:21;146675.72;;;-2.56;100.00
6599;BME280;3335;43.198;27.918;2023-02-10T07:47:48;146689.34;;;-2.50;100.00
6599;BME280;3335;43.198;27.918;2023-02-10T07:50:15;146714.06;;;-2.40;100.00
6599;BME280;3335;43.198;27.918;2023-02-10T07:52:42;146728.91;;;-2.34;100.00
6599;BME280;3335;43.198;27.918;2023-02-10T07:55:10;146738.78;;;-2.30;100.00
6599;BME280;3335;43.198;27.918;2023-02-10T07:57:37;146757.31;;;-2.23;100.00
6599;BME280;3335;43.198;27.918;2023-02-10T08:00:06;146778.38;;;-2.14;100.00
6599;BME280;3335;43.198;27.918;2023-02-10T08:02:33;146763.53;;;-2.20;100.00
6599;BME280;3335;43.198;27.918;2023-02-10T08:05:00;146820.38;;;-1.97;100.00
6599;BME280;3335;43.198;27.918;2023-02-10T08:07:27;146845.13;;;-1.87;100.00
6599;BME280;3335;43.198;27.918;2023-02-10T08:09:54;146867.38;;;-1.78;100.00
6599;BME280;3335;43.198;27.918;2023-02-10T08:12:22;146892.13;;;-1.67;100.00
6599;BME280;3335;43.198;27.918;2023-02-10T08:14:49;146902.00;;;-1.63;100.00
6599;BME280;3335;43.198;27.918;2023-02-10T08:17:16;146945.28;;;-1.46;100.00
6599;BME280;3335;43.198;27.918;2023-02-10T08:19:43;146975.00;;;-1.34;100.00
6599;BME280;3335;43.198;27.918;2023-02-10T08:22:10;147000.97;;;-1.23;100.00
6599;BME280;3335;43.198;27.918;2023-02-10T08:24:37;147008.41;;;-1.20;100.00
6599;BME280;3335;43.198;27.918;2023-02-10T08:27:04;147018.31;;;-1.16;100.00
6599;BME280;3335;43.198;27.918;2023-02-10T08:29:32;147008.41;;;-1.20;100.00
6599;BME280;3335;43.198;27.918;2023-02-10T08:31:59;147055.44;;;-1.01;100.00
6599;BME280;3335;43.198;27.918;2023-02-10T08:34:26;146913.16;;;-1.59;100.00
6599;BME280;3335;43.198;27.918;2023-02-10T08:36:54;147102.47;;;-0.81;100.00
6599;BME280;3335;43.198;27.918;2023-02-10T08:39:21;147151.94;;;-0.61;100.00
6599;BME280;3335;43.198;27.918;2023-02-10T08:41:48;147185.41;;;-0.48;100.00
6599;BME280;3335;43.198;27.918;2023-02-10T08:44:15;147216.38;;;-0.35;100.00
6599;BME280;3335;43.198;27.918;2023-02-10T08:46:43;147232.44;;;-0.28;100.00
6599;BME280;3335;43.198;27.918;2023-02-10T08:49:10;147278.28;;;-0.10;100.00
6599;BME280;3335;43.198;27.918;2023-02-10T08:51:37;147303.03;;;0.00;100.00
6599;BME280;3335;43.198;27.918;2023-02-10T08:54:04;147308.00;;;0.03;100.00
6599;BME280;3335;43.198;27.918;2023-02-10T08:56:31;147295.59;;;-0.03;100.00
6599;BME280;3335;43.198;27.918;2023-02-10T08:58:58;147383.53;;;0.33;100.00
6599;BME280;3335;43.198;27.918;2023-02-10T09:01:26;147410.81;;;0.44;100.00
6599;BME280;3335;43.198;27.918;2023-02-10T09:03:55;147436.84;;;0.55;100.00
6599;BME280;3335;43.198;27.918;2023-02-10T09:06:23;147466.56;;;0.67;100.00
6599;BME280;3335;43.198;27.918;2023-02-10T09:08:51;147379.84;;;0.32;100.00
6599;BME280;3335;43.198;27.918;2023-02-10T09:11:20;147523.59;;;0.91;97.02
6599;BME280;3335;43.198;27.918;2023-02-10T09:13:48;147540.97;;;0.98;89.77
6599;BME280;3335;43.198;27.918;2023-02-10T09:16:16;147578.16;;;1.13;85.14
6599;BME280;3335;43.198;27.918;2023-02-10T09:18:42;147602.97;;;1.23;79.22
6599;BME280;3335;43.198;27.918;2023-02-10T09:21:11;147655.03;;;1.44;70.18
6599;BME280;3335;43.198;27.918;2023-02-10T09:23:38;147642.63;;;1.39;63.92
6599;BME280;3335;43.198;27.918;2023-02-10T09:26:05;147684.81;;;1.56;62.08
6599;BME280;3335;43.198;27.918;2023-02-10T09:28:32;147717.06;;;1.69;60.43
6599;BME280;3335;43.198;27.918;2023-02-10T09:30:59;147756.72;;;1.86;59.34
6599;BME280;3335;43.198;27.918;2023-02-10T09:33:26;147812.59;;;2.08;58.85
6599;BME280;3335;43.198;27.918;2023-02-10T09:35:53;147806.38;;;2.06;57.64
6599;BME280;3335;43.198;27.918;2023-02-10T09:38:22;147841.09;;;2.20;56.88
6599;BME280;3335;43.198;27.918;2023-02-10T09:40:53;147868.41;;;2.31;54.63
6599;BME280;3335;43.198;27.918;2023-02-10T09:43:33;147903.19;;;2.45;54.26
6599;BME280;3335;43.198;27.918;2023-02-10T09:46:09;147875.84;;;2.34;52.02
6599;BME280;3335;43.198;27.918;2023-02-10T09:48:48;147890.75;;;2.40;52.44
6599;BME280;3335;43.198;27.918;2023-02-10T09:51:31;147903.19;;;2.45;52.90
6599;BME280;3335;43.198;27.918;2023-02-10T09:54:08;147937.94;;;2.59;51.55
6599;BME280;3335;43.198;27.918;2023-02-10T09:56:37;147962.75;;;2.70;50.43
6599;BME280;3335;43.198;27.918;2023-02-10T09:59:05;147952.84;;;2.66;50.28
6599;BME280;3335;43.198;27.918;2023-02-10T10:01:35;147959.03;;;2.68;50.82
6599;BME280;3335;43.198;27.918;2023-02-10T10:04:06;147965.25;;;2.71;50.75
6599;BME280;3335;43.198;27.918;2023-02-10T10:06:37;147982.63;;;2.78;50.87
6599;BME280;3335;43.198;27.918;2023-02-10T10:09:15;148000.00;;;2.85;50.34
6599;BME280;3335;43.198;27.918;2023-02-10T10:11:46;147995.03;;;2.83;49.71
6599;BME280;3335;43.198;27.918;2023-02-10T10:14:18;148052.16;;;3.06;48.85
6599;BME280;3335;43.198;27.918;2023-02-10T10:16:56;148064.56;;;3.11;48.44
6599;BME280;3335;43.198;27.918;2023-02-10T10:19:32;148072.00;;;3.14;50.04
6599;BME280;3335;43.198;27.918;2023-02-10T10:22:19;148141.56;;;3.42;49.90
6599;BME280;3335;43.198;27.918;2023-02-10T10:25:07;148131.63;;;3.38;49.20
6599;BME280;3335;43.198;27.918;2023-02-10T10:27:51;148166.41;;;3.52;49.25
6599;BME280;3335;43.198;27.918;2023-02-10T10:30:31;148190.00;;;3.62;49.12
6599;BME280;3335;43.198;27.918;2023-02-10T10:33:10;148206.19;;;3.69;47.58
6599;BME280;3335;43.198;27.918;2023-02-10T10:35:42;148208.69;;;3.70;48.59
6599;BME280;3335;43.198;27.918;2023-02-10T10:38:12;148201.19;;;3.67;47.01
6599;BME280;3335;43.198;27.918;2023-02-10T10:40:43;148238.47;;;3.82;47.08
6599;BME280;3335;43.198;27.918;2023-02-10T10:43:16;148226.03;;;3.77;46.62
6599;BME280;3335;43.198;27.918;2023-02-10T10:45:47;148295.63;;;4.05;47.51
6599;BME280;3335;43.198;27.918;2023-02-10T10:48:16;148294.38;;;4.05;47.81
6599;BME280;3335;43.198;27.918;2023-02-10T10:50:44;148316.75;;;4.14;47.61
6599;BME280;3335;43.198;27.918;2023-02-10T10:53:15;148283.19;;;4.00;46.84
6599;BME280;3335;43.198;27.918;2023-02-10T10:55:47;148296.88;;;4.06;47.05
6599;BME280;3335;43.198;27.918;2023-02-10T10:58:23;148313.06;;;4.12;46.95
6599;BME280;3335;43.198;27.918;2023-02-10T11:00:53;148300.63;;;4.07;45.57
6599;BME280;3335;43.198;27.918;2023-02-10T11:03:21;148337.94;;;4.22;45.91
6599;BME280;3335;43.198;27.918;2023-02-10T11:05:58;148360.28;;;4.31;45.78
6599;BME280;3335;43.198;27.918;2023-02-10T11:08:29;148372.72;;;4.36;45.31
6599;BME280;3335;43.198;27.918;2023-02-10T11:10:59;148387.63;;;4.43;46.43
6599;BME280;3335;43.198;27.918;2023-02-10T11:13:29;148395.09;;;4.46;45.47
6599;BME280;3335;43.198;27.918;2023-02-10T11:16:00;148479.63;;;4.80;46.50
6599;BME280;3335;43.198;27.918;2023-02-10T11:18:28;148472.16;;;4.77;46.67
6599;BME280;3335;43.198;27.918;2023-02-10T11:20:56;148437.34;;;4.63;46.49
6599;BME280;3335;43.198;27.918;2023-02-10T11:23:24;148442.34;;;4.65;48.26
6599;BME280;3335;43.198;27.918;2023-02-10T11:25:59;148489.59;;;4.84;48.06
6599;BME280;3335;43.198;27.918;2023-02-10T11:28:28;148536.88;;;5.03;48.48
6599;BME280;3335;43.198;27.918;2023-02-10T11:30:57;148579.16;;;5.20;47.73
6599;BME280;3335;43.198;27.918;2023-02-10T11:33:29;148636.38;;;5.44;48.17
6599;BME280;3335;43.198;27.918;2023-02-10T11:36:03;148645.06;;;5.47;48.56
6599;BME280;3335;43.198;27.918;2023-02-10T11:38:32;148709.81;;;5.73;47.52
6599;BME280;3335;43.198;27.918;2023-02-10T11:41:02;148684.91;;;5.63;46.83
6599;BME280;3335;43.198;27.918;2023-02-10T11:43:39;148584.13;;;5.22;47.93
6599;BME280;3335;43.198;27.918;2023-02-10T11:46:07;148662.50;;;5.54;48.12
6599;BME280;3335;43.198;27.918;2023-02-10T11:48:35;148599.03;;;5.28;47.67
6599;BME280;3335;43.198;27.918;2023-02-10T11:51:12;148571.69;;;5.17;47.08
6599;BME280;3335;43.198;27.918;2023-02-10T11:53:41;148673.72;;;5.59;47.11
6599;BME280;3335;43.198;27.918;2023-02-10T11:56:15;148753.41;;;5.91;47.46
6599;BME280;3335;43.198;27.918;2023-02-10T11:58:54;148815.66;;;6.17;46.61
6599;BME280;3335;43.198;27.918;2023-02-10T12:01:33;148826.84;;;6.21;46.66
6599;BME280;3335;43.198;27.918;2023-02-10T12:04:14;148814.41;;;6.16;46.23
6599;BME280;3335;43.198;27.918;2023-02-10T12:06:51;148880.38;;;6.43;46.82
6599;BME280;3335;43.198;27.918;2023-02-10T12:09:27;148838.06;;;6.26;45.68
6599;BME280;3335;43.198;27.918;2023-02-10T12:12:04;148887.88;;;6.46;45.30
6599;BME280;3335;43.198;27.918;2023-02-10T12:14:46;148880.38;;;6.43;44.69
6599;BME280;3335;43.198;27.918;2023-02-10T12:17:24;148843.00;;;6.28;45.21
6599;BME280;3335;43.198;27.918;2023-02-10T12:20:02;148907.78;;;6.54;45.21
6599;BME280;3335;43.198;27.918;2023-02-10T12:22:45;148872.94;;;6.40;45.88
6599;BME280;3335;43.198;27.918;2023-02-10T12:25:20;148906.53;;;6.53;45.69
6599;BME280;3335;43.198;27.918;2023-02-10T12:27:57;148936.41;;;6.66;45.64
6599;BME280;3335;43.198;27.918;2023-02-10T12:30:35;148921.50;;;6.59;45.14
6599;BME280;3335;43.198;27.918;2023-02-10T12:33:23;148843.00;;;6.28;45.93
6599;BME280;3335;43.198;27.918;2023-02-10T12:35:57;148850.50;;;6.31;47.23
6599;BME280;3335;43.198;27.918;2023-02-10T12:38:35;148803.19;;;6.11;47.25
6599;BME280;3335;43.198;27.918;2023-02-10T12:41:13;148808.16;;;6.13;46.98
6599;BME280;3335;43.198;27.918;2023-02-10T12:43:53;148788.25;;;6.05;46.99
6599;BME280;3335;43.198;27.918;2023-02-10T12:46:26;148809.41;;;6.14;47.28
6599;BME280;3335;43.198;27.918;2023-02-10T12:49:15;148882.88;;;6.44;47.34
6599;BME280;3335;43.198;27.918;2023-02-10T12:51:57;148867.94;;;6.38;46.83
6599;BME280;3335;43.198;27.918;2023-02-10T12:54:32;148877.88;;;6.42;46.87
6599;BME280;3335;43.198;27.918;2023-02-10T12:57:05;148910.28;;;6.55;47.52
6599;BME280;3335;43.198;27.918;2023-02-10T12:59:43;148904.03;;;6.52;47.09
6599;BME280;3335;43.198;27.918;2023-02-10T13:02:16;148853.00;;;6.32;48.53
6599;BME280;3335;43.198;27.918;2023-02-10T13:04:47;148823.09;;;6.20;48.10
6599;BME280;3335;43.198;27.918;2023-02-10T13:07:24;148773.31;;;5.99;48.20
6599;BME280;3335;43.198;27.918;2023-02-10T13:09:56;148892.84;;;6.48;47.82